Time,TemperatureF,DewpointF,PressureIn,WindDirection,WindDirectionDegrees,WindSpeedMPH,WindSpeedGustMPH,Humidity,HourlyPrecipIn,Conditions,Clouds,dailyrainin,SoftwareType,DateUTC
2013-04-30 00:01:00,50.0,37.5,30.26,East,100,3.0,5.0,62,0.00,,OVC100,0.00,VWS V14.01,2013-04-30 04:01:00,
2013-04-30 00:06:00,50.0,37.5,30.26,East,100,3.0,3.0,62,0.00,,OVC100,0.00,VWS V14.01,2013-04-30 04:06:00,
2013-04-30 00:13:00,50.0,37.5,30.26,East,100,3.0,3.0,62,0.00,,OVC100,0.00,VWS V14.01,2013-04-30 04:13:00,
2013-04-30 00:28:00,50.0,37.5,30.26,East,100,3.0,3.0,62,0.00,,OVC100,0.00,VWS V14.01,2013-04-30 04:28:00,
2013-04-30 00:33:00,50.0,37.5,30.26,East,100,3.0,3.0,62,0.00,,OVC100,0.00,VWS V14.01,2013-04-30 04:33:00,
2013-04-30 00:48:00,50.0,37.5,30.26,East,100,3.0,3.0,62,0.00,,OVC100,0.00,VWS V14.01,2013-04-30 04:48:00,
2013-04-30 00:53:00,50.0,37.5,30.26,East,100,3.0,3.0,62,0.00,,OVC100,0.00,VWS V14.01,2013-04-30 04:53:00,
2013-04-30 00:56:00,48.2,37.4,30.26,North,0,0.0,0.0,66,0.00,,FEW065,0.00,VWS V14.01,2013-04-30 04:56:00,
2013-04-30 00:58:00,50.0,37.5,30.26,East,100,3.0,3.0,62,0.00,,OVC100,0.00,VWS V14.01,2013-04-30 04:58:00,
2013-04-30 01:03:00,48.2,37.4,30.26,North,0,0.0,0.0,66,0.00,,FEW065,0.00,VWS V14.01,2013-04-30 05:03:00,
2013-04-30 01:12:00,48.2,37.4,30.26,North,0,0.0,0.0,66,0.00,,FEW065,0.00,VWS V14.01,2013-04-30 05:12:00,
2013-04-30 01:26:00,48.2,37.4,30.26,North,0,0.0,0.0,66,0.00,,FEW065,0.00,VWS V14.01,2013-04-30 05:26:00,
2013-04-30 01:31:00,48.2,37.4,30.26,North,0,0.0,0.0,66,0.00,,FEW065,0.00,VWS V14.01,2013-04-30 05:31:00,
2013-04-30 01:44:00,48.2,37.4,30.26,North,0,0.0,0.0,66,0.00,,FEW065,0.00,VWS V14.01,2013-04-30 05:44:00,
2013-04-30 01:52:00,48.2,37.4,30.26,North,0,0.0,0.0,66,0.00,,FEW065,0.00,VWS V14.01,2013-04-30 05:52:00,
2013-04-30 01:56:00,50.0,39.1,30.25,North,0,0.0,0.0,66,0.00,,OVC080,0.00,VWS V14.01,2013-04-30 05:56:00,
2013-04-30 01:57:00,48.2,37.4,30.26,North,0,0.0,0.0,66,0.00,,FEW065,0.00,VWS V14.01,2013-04-30 05:57:00,
2013-04-30 02:02:00,50.0,39.1,30.25,North,0,0.0,0.0,66,0.00,,OVC080,0.00,VWS V14.01,2013-04-30 06:02:00,
2013-04-30 02:15:00,50.0,39.1,30.25,North,0,0.0,0.0,66,0.00,,OVC080,0.00,VWS V14.01,2013-04-30 06:15:00,
2013-04-30 02:39:00,50.0,39.1,30.25,North,0,0.0,0.0,66,0.00,,OVC080,0.00,VWS V14.01,2013-04-30 06:39:00,
2013-04-30 02:45:00,50.0,39.1,30.25,North,0,0.0,0.0,66,0.00,,OVC080,0.00,VWS V14.01,2013-04-30 06:45:00,
2013-04-30 02:51:00,50.0,39.1,30.25,North,0,0.0,0.0,66,0.00,,OVC080,0.00,VWS V14.01,2013-04-30 06:51:00,
2013-04-30 02:56:00,50.0,39.1,30.25,North,0,0.0,0.0,66,0.00,,OVC080,0.00,VWS V14.01,2013-04-30 06:56:00,
2013-04-30 03:01:00,50.0,37.5,30.25,NE,50,3.0,3.0,62,0.00,,OVC085,0.00,VWS V14.01,2013-04-30 07:01:00,
2013-04-30 03:31:00,50.0,37.5,30.25,NE,50,3.0,3.0,62,0.00,,OVC085,0.00,VWS V14.01,2013-04-30 07:31:00,
2013-04-30 03:52:00,50.0,37.5,30.25,NE,50,3.0,3.0,62,0.00,,OVC085,0.00,VWS V14.01,2013-04-30 07:52:00,
2013-04-30 03:56:00,48.2,37.4,30.25,NNE,20,4.0,4.0,66,0.00,,BKN090,0.00,VWS V14.01,2013-04-30 07:56:00,
2013-04-30 03:57:00,50.0,37.5,30.25,NE,50,3.0,3.0,62,0.00,,OVC085,0.00,VWS V14.01,2013-04-30 07:57:00,
2013-04-30 04:02:00,48.2,37.4,30.25,NNE,20,4.0,4.0,66,0.00,,BKN090,0.00,VWS V14.01,2013-04-30 08:02:00,
2013-04-30 04:19:00,48.2,37.4,30.25,NNE,20,4.0,4.0,66,0.00,,BKN090,0.00,VWS V14.01,2013-04-30 08:19:00,
2013-04-30 04:31:00,48.2,37.4,30.25,NNE,20,4.0,4.0,66,0.00,,BKN090,0.00,VWS V14.01,2013-04-30 08:31:00,
2013-04-30 04:47:00,48.2,37.4,30.25,NNE,20,4.0,4.0,66,0.00,,BKN090,0.00,VWS V14.01,2013-04-30 08:47:00,
2013-04-30 04:52:00,48.2,37.4,30.25,NNE,20,4.0,4.0,66,0.00,,BKN090,0.00,VWS V14.01,2013-04-30 08:52:00,
2013-04-30 04:56:00,48.2,37.4,30.26,NNE,20,3.0,3.0,66,0.00,,OVC090,0.00,VWS V14.01,2013-04-30 08:56:00,
2013-04-30 04:57:00,48.2,37.4,30.25,NNE,20,4.0,4.0,66,0.00,,BKN090,0.00,VWS V14.01,2013-04-30 08:57:00,
2013-04-30 05:02:00,48.2,37.4,30.26,NNE,20,3.0,3.0,66,0.00,,OVC090,0.00,VWS V14.01,2013-04-30 09:02:00,
2013-04-30 05:14:00,48.2,37.4,30.26,NNE,20,3.0,3.0,66,0.00,,OVC090,0.00,VWS V14.01,2013-04-30 09:14:00,
2013-04-30 05:24:00,48.2,37.4,30.26,NNE,20,3.0,3.0,66,0.00,,OVC090,0.00,VWS V14.01,2013-04-30 09:24:00,
2013-04-30 05:40:00,48.2,37.4,30.26,NNE,20,3.0,3.0,66,0.00,,OVC090,0.00,VWS V14.01,2013-04-30 09:40:00,
2013-04-30 05:52:00,48.2,37.4,30.26,NNE,20,3.0,3.0,66,0.00,,OVC090,0.00,VWS V14.01,2013-04-30 09:52:00,
2013-04-30 05:56:00,48.2,37.4,30.27,NNE,30,3.0,3.0,66,0.00,,OVC090,0.00,VWS V14.01,2013-04-30 09:56:00,
2013-04-30 05:57:00,48.2,37.4,30.26,NNE,20,3.0,3.0,66,0.00,,OVC090,0.00,VWS V14.01,2013-04-30 09:57:00,
2013-04-30 06:02:00,48.2,37.4,30.27,NNE,30,3.0,3.0,66,0.00,,OVC090,0.00,VWS V14.01,2013-04-30 10:02:00,
2013-04-30 06:12:00,48.2,37.4,30.27,NNE,30,3.0,3.0,66,0.00,,OVC090,0.00,VWS V14.01,2013-04-30 10:12:00,
2013-04-30 06:34:00,48.2,37.4,30.27,NNE,30,3.0,3.0,66,0.00,,OVC090,0.00,VWS V14.01,2013-04-30 10:34:00,
2013-04-30 06:40:00,48.2,37.4,30.27,NNE,30,3.0,3.0,66,0.00,,OVC090,0.00,VWS V14.01,2013-04-30 10:40:00,
2013-04-30 06:52:00,48.2,37.4,30.27,NNE,30,3.0,3.0,66,0.00,,OVC090,0.00,VWS V14.01,2013-04-30 10:52:00,
2013-04-30 06:56:00,50.0,35.8,30.29,NE,50,5.0,5.0,58,0.00,,OVC085,0.00,VWS V14.01,2013-04-30 10:56:00,
2013-04-30 06:57:00,48.2,37.4,30.27,NNE,30,3.0,3.0,66,0.00,,OVC090,0.00,VWS V14.01,2013-04-30 10:57:00,
2013-04-30 07:02:00,50.0,35.8,30.29,NE,50,5.0,5.0,58,0.00,,OVC085,0.00,VWS V14.01,2013-04-30 11:02:00,
2013-04-30 07:12:00,50.0,35.8,30.29,NE,50,5.0,5.0,58,0.00,,OVC085,0.00,VWS V14.01,2013-04-30 11:12:00,
2013-04-30 07:18:00,50.0,35.8,30.29,NE,50,5.0,5.0,58,0.00,,OVC085,0.00,VWS V14.01,2013-04-30 11:18:00,
2013-04-30 07:25:00,50.0,35.8,30.29,NE,50,5.0,5.0,58,0.00,,OVC085,0.00,VWS V14.01,2013-04-30 11:25:00,
2013-04-30 07:47:00,50.0,35.8,30.29,NE,50,5.0,5.0,58,0.00,,OVC085,0.00,VWS V14.01,2013-04-30 11:47:00,
2013-04-30 07:52:00,50.0,35.8,30.29,NE,50,5.0,5.0,58,0.00,,OVC085,0.00,VWS V14.01,2013-04-30 11:52:00,
2013-04-30 07:56:00,53.6,35.4,30.30,East,90,8.0,8.0,50,0.00,,BKN085,0.00,VWS V14.01,2013-04-30 11:56:00,
2013-04-30 07:57:00,50.0,35.8,30.29,NE,50,5.0,5.0,58,0.00,,OVC085,0.00,VWS V14.01,2013-04-30 11:57:00,
2013-04-30 08:02:00,53.6,35.4,30.30,East,90,8.0,8.0,50,0.00,,BKN085,0.00,VWS V14.01,2013-04-30 12:02:00,
2013-04-30 08:32:00,53.6,35.4,30.30,East,90,8.0,8.0,50,0.00,,BKN085,0.00,VWS V14.01,2013-04-30 12:32:00,
2013-04-30 08:38:00,53.6,35.4,30.30,East,90,8.0,8.0,50,0.00,,BKN085,0.00,VWS V14.01,2013-04-30 12:38:00,
2013-04-30 08:51:00,53.6,35.4,30.30,East,90,8.0,8.0,50,0.00,,BKN085,0.00,VWS V14.01,2013-04-30 12:51:00,
2013-04-30 08:56:00,53.6,35.4,30.30,East,90,8.0,8.0,50,0.00,,BKN085,0.00,VWS V14.01,2013-04-30 12:56:00,
2013-04-30 09:01:00,57.2,30.5,30.32,ESE,110,6.0,6.0,36,0.00,,BKN085,0.00,VWS V14.01,2013-04-30 13:01:00,
2013-04-30 09:08:00,57.2,30.5,30.32,ESE,110,6.0,6.0,36,0.00,,BKN085,0.00,VWS V14.01,2013-04-30 13:08:00,
2013-04-30 09:22:00,57.2,30.5,30.32,ESE,110,6.0,6.0,36,0.00,,BKN085,0.00,VWS V14.01,2013-04-30 13:22:00,
2013-04-30 09:32:00,57.2,30.5,30.32,ESE,110,6.0,6.0,36,0.00,,BKN085,0.00,VWS V14.01,2013-04-30 13:32:00,
2013-04-30 09:37:00,57.2,30.5,30.32,ESE,110,6.0,6.0,36,0.00,,BKN085,0.00,VWS V14.01,2013-04-30 13:37:00,
2013-04-30 09:47:00,57.2,30.5,30.32,ESE,110,6.0,6.0,36,0.00,,BKN085,0.00,VWS V14.01,2013-04-30 13:47:00,
2013-04-30 09:52:00,57.2,30.5,30.32,ESE,110,6.0,6.0,36,0.00,,BKN085,0.00,VWS V14.01,2013-04-30 13:52:00,
2013-04-30 09:56:00,57.2,28.4,30.33,ESE,110,9.0,9.0,33,0.00,,CLR,0.00,VWS V14.01,2013-04-30 13:56:00,
2013-04-30 09:57:00,57.2,30.5,30.32,ESE,110,6.0,6.0,36,0.00,,BKN085,0.00,VWS V14.01,2013-04-30 13:57:00,
2013-04-30 10:02:00,57.2,28.4,30.33,ESE,110,9.0,9.0,33,0.00,,CLR,0.00,VWS V14.01,2013-04-30 14:02:00,
2013-04-30 10:07:00,57.2,28.4,30.33,ESE,110,9.0,9.0,33,0.00,,CLR,0.00,VWS V14.01,2013-04-30 14:07:00,
2013-04-30 10:14:00,57.2,28.4,30.33,ESE,110,9.0,9.0,33,0.00,,CLR,0.00,VWS V14.01,2013-04-30 14:14:00,
2013-04-30 10:23:00,57.2,28.4,30.33,ESE,110,9.0,9.0,33,0.00,,CLR,0.00,VWS V14.01,2013-04-30 14:23:00,
2013-04-30 10:42:00,57.2,28.4,30.33,ESE,110,9.0,9.0,33,0.00,,CLR,0.00,VWS V14.01,2013-04-30 14:42:00,
2013-04-30 10:49:00,57.2,28.4,30.33,ESE,110,9.0,9.0,33,0.00,,CLR,0.00,VWS V14.01,2013-04-30 14:49:00,
2013-04-30 10:54:00,57.2,28.4,30.33,ESE,110,9.0,9.0,33,0.00,,CLR,0.00,VWS V14.01,2013-04-30 14:54:00,
2013-04-30 10:56:00,59.0,32.1,30.33,ESE,110,12.0,12.0,36,0.00,,CLR,0.00,VWS V14.01,2013-04-30 14:56:00,
2013-04-30 10:59:00,57.2,28.4,30.33,ESE,110,9.0,9.0,33,0.00,,CLR,0.00,VWS V14.01,2013-04-30 14:59:00,
2013-04-30 11:04:00,59.0,32.1,30.33,ESE,110,12.0,12.0,36,0.00,,CLR,0.00,VWS V14.01,2013-04-30 15:04:00,
2013-04-30 11:10:00,59.0,32.1,30.33,ESE,110,12.0,12.0,36,0.00,,CLR,0.00,VWS V14.01,2013-04-30 15:10:00,
2013-04-30 11:19:00,59.0,32.1,30.33,ESE,110,12.0,12.0,36,0.00,,CLR,0.00,VWS V14.01,2013-04-30 15:19:00,
2013-04-30 11:33:00,59.0,32.1,30.33,ESE,110,12.0,12.0,36,0.00,,CLR,0.00,VWS V14.01,2013-04-30 15:33:00,
2013-04-30 11:51:00,59.0,32.1,30.33,ESE,110,12.0,12.0,36,0.00,,CLR,0.00,VWS V14.01,2013-04-30 15:51:00,
2013-04-30 11:56:00,59.0,32.1,30.33,ESE,110,12.0,12.0,36,0.00,,CLR,0.00,VWS V14.01,2013-04-30 15:56:00,
2013-04-30 12:01:00,57.2,31.8,30.33,ESE,120,13.0,13.0,38,0.00,,CLR,0.00,VWS V14.01,2013-04-30 16:01:00,
2013-04-30 12:10:00,57.2,31.8,30.33,ESE,120,13.0,13.0,38,0.00,,CLR,0.00,VWS V14.01,2013-04-30 16:10:00,
2013-04-30 12:19:00,57.2,31.8,30.33,ESE,120,13.0,13.0,38,0.00,,CLR,0.00,VWS V14.01,2013-04-30 16:19:00,
2013-04-30 12:30:00,57.2,31.8,30.33,ESE,120,13.0,13.0,38,0.00,,CLR,0.00,VWS V14.01,2013-04-30 16:30:00,
2013-04-30 12:39:00,57.2,31.8,30.33,ESE,120,13.0,13.0,38,0.00,,CLR,0.00,VWS V14.01,2013-04-30 16:39:00,
2013-04-30 12:50:00,57.2,31.8,30.33,ESE,120,13.0,13.0,38,0.00,,CLR,0.00,VWS V14.01,2013-04-30 16:50:00,
2013-04-30 12:55:00,57.2,31.8,30.33,ESE,120,13.0,13.0,38,0.00,,CLR,0.00,VWS V14.01,2013-04-30 16:55:00,
2013-04-30 12:56:00,59.0,37.1,30.33,SE,140,9.0,9.0,44,0.00,,CLR,0.00,VWS V14.01,2013-04-30 16:56:00,
2013-04-30 13:00:00,59.0,37.1,30.33,SE,140,9.0,13.0,44,0.00,,CLR,0.00,VWS V14.01,2013-04-30 17:00:00,
2013-04-30 13:05:00,59.0,37.1,30.33,SE,140,9.0,9.0,44,0.00,,CLR,0.00,VWS V14.01,2013-04-30 17:05:00,
2013-04-30 13:21:00,59.0,37.1,30.33,SE,140,9.0,9.0,44,0.00,,CLR,0.00,VWS V14.01,2013-04-30 17:21:00,
2013-04-30 13:51:00,59.0,37.1,30.33,SE,140,9.0,9.0,44,0.00,,CLR,0.00,VWS V14.01,2013-04-30 17:51:00,
2013-04-30 13:56:00,59.0,37.1,30.33,SE,140,9.0,9.0,44,0.00,,CLR,0.00,VWS V14.01,2013-04-30 17:56:00,
2013-04-30 14:01:00,59.0,34.1,30.32,SE,140,10.0,10.0,39,0.00,,CLR,0.00,VWS V14.01,2013-04-30 18:01:00,
2013-04-30 14:06:00,59.0,34.1,30.32,SE,140,10.0,10.0,39,0.00,,CLR,0.00,VWS V14.01,2013-04-30 18:06:00,
2013-04-30 14:39:00,59.0,34.1,30.32,SE,140,10.0,10.0,39,0.00,,CLR,0.00,VWS V14.01,2013-04-30 18:39:00,
2013-04-30 14:51:00,59.0,34.1,30.32,SE,140,10.0,10.0,39,0.00,,CLR,0.00,VWS V14.01,2013-04-30 18:51:00,
2013-04-30 14:56:00,59.0,34.1,30.32,SE,140,10.0,10.0,39,0.00,,CLR,0.00,VWS V14.01,2013-04-30 18:56:00,
2013-04-30 15:01:00,59.0,35.3,30.32,SSE,160,9.0,9.0,41,0.00,,CLR,0.00,VWS V14.01,2013-04-30 19:01:00,
2013-04-30 15:13:00,59.0,35.3,30.32,SSE,160,9.0,9.0,41,0.00,,CLR,0.00,VWS V14.01,2013-04-30 19:13:00,
2013-04-30 15:40:00,59.0,35.3,30.32,SSE,160,9.0,9.0,41,0.00,,CLR,0.00,VWS V14.01,2013-04-30 19:40:00,
2013-04-30 15:50:00,59.0,35.3,30.32,SSE,160,9.0,9.0,41,0.00,,CLR,0.00,VWS V14.01,2013-04-30 19:50:00,
2013-04-30 15:55:00,59.0,35.3,30.32,SSE,160,9.0,9.0,41,0.00,,CLR,0.00,VWS V14.01,2013-04-30 19:55:00,
2013-04-30 15:56:00,57.2,28.4,30.31,SE,140,10.0,10.0,33,0.00,,CLR,0.00,VWS V14.01,2013-04-30 19:56:00,
2013-04-30 16:00:00,57.2,28.4,30.31,SE,140,10.0,10.0,33,0.00,,CLR,0.00,VWS V14.01,2013-04-30 20:00:00,
2013-04-30 16:05:00,57.2,28.4,30.31,SE,140,10.0,10.0,33,0.00,,CLR,0.00,VWS V14.01,2013-04-30 20:05:00,
2013-04-30 16:29:00,57.2,28.4,30.31,SE,140,10.0,10.0,33,0.00,,CLR,0.00,VWS V14.01,2013-04-30 20:29:00,
2013-04-30 16:47:00,57.2,28.4,30.31,SE,140,10.0,10.0,33,0.00,,CLR,0.00,VWS V14.01,2013-04-30 20:47:00,
2013-04-30 16:52:00,57.2,28.4,30.31,SE,140,10.0,10.0,33,0.00,,CLR,0.00,VWS V14.01,2013-04-30 20:52:00,
2013-04-30 16:56:00,55.4,33.9,30.32,SSE,150,10.0,10.0,44,0.00,,CLR,0.00,VWS V14.01,2013-04-30 20:56:00,
2013-04-30 16:57:00,57.2,28.4,30.31,SE,140,10.0,10.0,33,0.00,,CLR,0.00,VWS V14.01,2013-04-30 20:57:00,
2013-04-30 17:02:00,55.4,33.9,30.32,SSE,150,10.0,10.0,44,0.00,,CLR,0.00,VWS V14.01,2013-04-30 21:02:00,
2013-04-30 17:21:00,55.4,33.9,30.32,SSE,150,10.0,10.0,44,0.00,,CLR,0.00,VWS V14.01,2013-04-30 21:21:00,
2013-04-30 17:33:00,55.4,33.9,30.32,SSE,150,10.0,10.0,44,0.00,,CLR,0.00,VWS V14.01,2013-04-30 21:33:00,
2013-04-30 17:50:00,55.4,33.9,30.32,SSE,150,10.0,10.0,44,0.00,,CLR,0.00,VWS V14.01,2013-04-30 21:50:00,
2013-04-30 17:55:00,55.4,33.9,30.32,SSE,150,10.0,10.0,44,0.00,,CLR,0.00,VWS V14.01,2013-04-30 21:55:00,
2013-04-30 17:56:00,53.6,32.2,30.32,SSE,150,6.0,6.0,44,0.00,,CLR,0.00,VWS V14.01,2013-04-30 21:56:00,
2013-04-30 18:00:00,53.6,32.2,30.32,SSE,150,6.0,10.0,44,0.00,,CLR,0.00,VWS V14.01,2013-04-30 22:00:00,
2013-04-30 18:05:00,53.6,32.2,30.32,SSE,150,6.0,6.0,44,0.00,,CLR,0.00,VWS V14.01,2013-04-30 22:05:00,
2013-04-30 18:19:00,53.6,32.2,30.32,SSE,150,6.0,6.0,44,0.00,,CLR,0.00,VWS V14.01,2013-04-30 22:19:00,
2013-04-30 18:29:00,53.6,32.2,30.32,SSE,150,6.0,6.0,44,0.00,,CLR,0.00,VWS V14.01,2013-04-30 22:29:00,
2013-04-30 18:44:00,53.6,32.2,30.32,SSE,150,6.0,6.0,44,0.00,,CLR,0.00,VWS V14.01,2013-04-30 22:44:00,
2013-04-30 18:51:00,53.6,32.2,30.32,SSE,150,6.0,6.0,44,0.00,,CLR,0.00,VWS V14.01,2013-04-30 22:51:00,
2013-04-30 18:56:00,53.6,32.2,30.32,SSE,150,6.0,6.0,44,0.00,,CLR,0.00,VWS V14.01,2013-04-30 22:56:00,
2013-04-30 19:01:00,51.8,33.8,30.34,North,0,0.0,0.0,50,0.00,,CLR,0.00,VWS V14.01,2013-04-30 23:01:00,
2013-04-30 19:08:00,51.8,33.8,30.34,North,0,0.0,0.0,50,0.00,,CLR,0.00,VWS V14.01,2013-04-30 23:08:00,
2013-04-30 19:16:00,51.8,33.8,30.34,North,0,0.0,0.0,50,0.00,,CLR,0.00,VWS V14.01,2013-04-30 23:16:00,
2013-04-30 19:21:00,51.8,33.8,30.34,North,0,0.0,0.0,50,0.00,,CLR,0.00,VWS V14.01,2013-04-30 23:21:00,
2013-04-30 19:28:00,51.8,33.8,30.34,North,0,0.0,0.0,50,0.00,,CLR,0.00,VWS V14.01,2013-04-30 23:28:00,
2013-04-30 19:38:00,51.8,33.8,30.34,North,0,0.0,0.0,50,0.00,,CLR,0.00,VWS V14.01,2013-04-30 23:38:00,
2013-04-30 19:43:00,51.8,33.8,30.34,North,0,0.0,0.0,50,0.00,,CLR,0.00,VWS V14.01,2013-04-30 23:43:00,
2013-04-30 19:52:00,51.8,33.8,30.34,North,0,0.0,0.0,50,0.00,,CLR,0.00,VWS V14.01,2013-04-30 23:52:00,
2013-04-30 19:56:00,51.8,33.8,30.34,North,0,0.0,0.0,50,0.00,,CLR,0.00,VWS V14.01,2013-04-30 23:56:00,
2013-04-30 19:57:00,51.8,33.8,30.34,North,0,0.0,0.0,50,0.00,,CLR,0.00,VWS V14.01,2013-04-30 23:57:00,
2013-04-30 20:02:00,51.8,33.8,30.34,North,0,0.0,0.0,50,0.00,,CLR,0.00,VWS V14.01,2013-05-01 00:02:00,
2013-04-30 20:10:00,51.8,33.8,30.34,North,0,0.0,0.0,50,0.00,,CLR,0.00,VWS V14.01,2013-05-01 00:10:00,
2013-04-30 20:18:00,51.8,33.8,30.34,North,0,0.0,0.0,50,0.00,,CLR,0.00,VWS V14.01,2013-05-01 00:18:00,
2013-04-30 20:30:00,51.8,33.8,30.34,North,0,0.0,0.0,50,0.00,,CLR,0.00,VWS V14.01,2013-05-01 00:30:00,
2013-04-30 20:40:00,51.8,33.8,30.34,North,0,0.0,0.0,50,0.00,,CLR,0.00,VWS V14.01,2013-05-01 00:40:00,
2013-04-30 20:52:00,51.8,33.8,30.34,North,0,0.0,0.0,50,0.00,,CLR,0.00,VWS V14.01,2013-05-01 00:52:00,
2013-04-30 20:56:00,46.4,33.7,30.35,North,0,0.0,0.0,61,0.00,,CLR,0.00,VWS V14.01,2013-05-01 00:56:00,
2013-04-30 20:57:00,51.8,33.8,30.34,North,0,0.0,0.0,50,0.00,,CLR,0.00,VWS V14.01,2013-05-01 00:57:00,
2013-04-30 21:02:00,46.4,33.7,30.35,North,0,0.0,0.0,61,0.00,,CLR,0.00,VWS V14.01,2013-05-01 01:02:00,
2013-04-30 21:28:00,46.4,33.7,30.35,North,0,0.0,0.0,61,0.00,,CLR,0.00,VWS V14.01,2013-05-01 01:28:00,
2013-04-30 21:52:00,46.4,33.7,30.35,North,0,0.0,0.0,61,0.00,,CLR,0.00,VWS V14.01,2013-05-01 01:52:00,
2013-04-30 21:56:00,44.6,34.0,30.35,North,0,0.0,0.0,66,0.00,,CLR,0.00,VWS V14.01,2013-05-01 01:56:00,
2013-04-30 21:57:00,46.4,33.7,30.35,North,0,0.0,0.0,61,0.00,,CLR,0.00,VWS V14.01,2013-05-01 01:57:00,
2013-04-30 22:02:00,44.6,34.0,30.35,North,0,0.0,0.0,66,0.00,,CLR,0.00,VWS V14.01,2013-05-01 02:02:00,
2013-04-30 22:26:00,44.6,34.0,30.35,North,0,0.0,0.0,66,0.00,,CLR,0.00,VWS V14.01,2013-05-01 02:26:00,
2013-04-30 22:31:00,44.6,34.0,30.35,North,0,0.0,0.0,66,0.00,,CLR,0.00,VWS V14.01,2013-05-01 02:31:00,
2013-04-30 22:37:00,44.6,34.0,30.35,North,0,0.0,0.0,66,0.00,,CLR,0.00,VWS V14.01,2013-05-01 02:37:00,
2013-04-30 22:43:00,44.6,34.0,30.35,North,0,0.0,0.0,66,0.00,,CLR,0.00,VWS V14.01,2013-05-01 02:43:00,
2013-04-30 22:51:00,44.6,34.0,30.35,North,0,0.0,0.0,66,0.00,,CLR,0.00,VWS V14.01,2013-05-01 02:51:00,
2013-04-30 22:56:00,44.6,34.0,30.35,North,0,0.0,0.0,66,0.00,,CLR,0.00,VWS V14.01,2013-05-01 02:56:00,
2013-04-30 23:01:00,42.8,30.3,30.35,North,0,0.0,0.0,61,0.00,,CLR,0.00,VWS V14.01,2013-05-01 03:01:00,
2013-04-30 23:08:00,42.8,30.3,30.35,North,0,0.0,0.0,61,0.00,,CLR,0.00,VWS V14.01,2013-05-01 03:08:00,
2013-04-30 23:19:00,42.8,30.3,30.35,North,0,0.0,0.0,61,0.00,,CLR,0.00,VWS V14.01,2013-05-01 03:19:00,
2013-04-30 23:30:00,42.8,30.3,30.35,North,0,0.0,0.0,61,0.00,,CLR,0.00,VWS V14.01,2013-05-01 03:30:00,
2013-04-30 23:52:00,42.8,30.3,30.35,North,0,0.0,0.0,61,0.00,,CLR,0.00,VWS V14.01,2013-05-01 03:52:00,
2013-04-30 23:56:00,42.8,33.7,30.35,NNE,20,3.0,3.0,70,0.00,,CLR,0.00,VWS V14.01,2013-05-01 03:56:00,
2013-04-30 23:57:00,42.8,30.3,30.35,North,0,0.0,0.0,61,0.00,,CLR,0.00,VWS V14.01,2013-05-01 03:57:00,